Latest Weather Observations for Legendre Island

IDW60801

Issued at 7:02 pm WST Tuesday 31 March 2015 (issued every 30 minutes, with the page automatically refreshed every 10 minutes)

About weather observations | Map of weather stations | Latest weather observations for WA | Other Formats
Station Details ID: 004095 Name: LEGENDRE ISLAND Lat: -20.36 Lon: 116.84 Height: 29.0 m
Data from the previous 72 hours. | See also: Recent months for locations in Western Australia
Date/Time
WST
Temp
°C
App
Temp
°C
Dew
Point
Rel
Hum
%
Delta-T
°C
Wind Press
QNH
hPa
Press
MSL
hPa
Rain
since 9 am
mm
Dir
 
Spd
km/h
Gust
km/h
Spd
kts
Gust
kts
31/07:00pm 28.4 33.8 26.0 87 1.7 W 9 11 5 6 1013.4 1013.2 -
31/06:30pm 28.6 34.1 25.6 84 2.1 WNW 7 9 4 5 1012.9 1012.7 -
31/06:00pm 29.2 34.5 25.2 79 2.8 NW 7 9 4 5 1012.5 1012.3 -
31/05:30pm 29.9 34.8 25.2 76 3.3 WNW 9 13 5 7 1012.4 1012.2 -
31/05:00pm 30.3 35.3 25.4 75 3.5 NW 9 13 5 7 1012.2 1012.0 -
31/04:30pm 30.4 35.5 25.5 75 3.5 NW 9 15 5 8 1012.2 1012.0 -
31/04:00pm 30.8 36.3 26.1 76 3.4 NNW 9 13 5 7 1012.0 1011.8 -
31/03:30pm 30.7 36.1 26.0 76 3.3 N 9 13 5 7 1011.9 1011.7 -
31/03:00pm 30.8 35.7 25.8 74 3.6 N 11 13 6 7 1011.8 1011.6 -
31/02:30pm 31.5 36.6 26.1 73 3.9 N 11 13 6 7 1012.1 1011.9 -
31/02:00pm 31.6 36.9 26.4 74 3.7 NNE 11 15 6 8 1012.3 1012.1 -
31/01:30pm 31.8 36.8 26.6 74 3.7 NE 13 15 7 8 1012.6 1012.4 -
31/01:00pm 32.1 37.8 27.1 75 3.6 NNE 11 13 6 7 1012.9 1012.7 -
31/12:30pm 31.9 38.0 27.1 76 3.5 NNE 9 11 5 6 1013.2 1013.0 -
31/12:00pm 32.1 38.2 27.1 75 3.6 NNE 9 11 5 6 1013.5 1013.3 -
31/11:30am 31.4 36.7 26.4 75 3.6 NNE 11 11 6 6 1013.9 1013.7 -
31/11:00am 31.0 36.6 26.3 76 3.4 NNE 9 11 5 6 1014.2 1014.0 -
31/10:30am 30.1 35.9 26.1 79 2.9 N 7 9 4 5 1014.6 1014.4 -
31/10:00am 28.9 33.7 25.1 80 2.7 N 9 11 5 6 1014.8 1014.6 -
31/09:30am 28.7 33.3 25.3 82 2.4 NNW 11 13 6 7 1015.1 1014.9 -
31/09:00am 28.1 32.1 25.1 84 2.1 NNW 13 15 7 8 1014.8 1014.6 -
31/08:30am 27.7 31.8 26.3 92 1.0 NNW 17 20 9 11 1014.4 1014.2 -
31/08:00am 27.6 30.3 25.0 86 1.8 NNW 20 26 11 14 1014.2 1014.0 -
31/07:30am 27.3 30.0 25.7 91 1.1 NNW 22 28 12 15 1013.9 1013.7 -
31/07:00am 25.9 28.6 25.0 95 0.6 NW 20 28 11 15 1013.9 1013.7 -
31/06:30am 25.5 25.9 23.7 90 1.2 NW 28 35 15 19 1013.5 1013.3 -
31/06:00am 25.5 24.6 24.5 94 0.7 NW 37 48 20 26 1013.6 1013.4 -
31/05:48am 25.7 28.1 24.3 92 1.0 NNW 19 48 10 26 1013.6 1013.4 -
31/05:30am 26.1 30.8 24.9 93 0.8 NW 9 11 5 6 1013.3 1013.1 -
31/05:00am 25.6 28.4 23.7 89 1.3 W 15 19 8 10 1013.2 1013.0 -
31/04:30am 28.5 34.5 26.9 91 1.1 N 9 11 5 6 1013.1 1012.9 -
31/04:00am 28.6 33.9 27.0 91 1.1 N 13 15 7 8 1012.7 1012.5 -
31/03:30am 28.6 34.1 26.8 90 1.3 N 11 13 6 7 1013.0 1012.8 -
31/03:00am 28.7 33.6 26.9 90 1.3 N 15 19 8 10 1012.7 1012.5 -
31/02:30am 28.6 33.4 26.8 90 1.3 N 15 17 8 9 1012.6 1012.4 -
31/02:00am 28.6 33.4 26.8 90 1.3 N 15 19 8 10 1012.9 1012.7 -
31/01:30am 28.6 32.8 27.0 91 1.1 N 19 20 10 11 1013.1 1012.9 -
31/01:00am 28.2 32.6 26.8 92 1.0 N 17 20 9 11 1013.1 1012.9 -
31/12:30am 28.6 32.9 27.2 92 1.0 NNW 19 22 10 12 1013.5 1013.3 -
31/12:00am 28.6 32.3 27.2 92 1.0 N 22 26 12 14 1013.4 1013.2 -
 
Date/Time
WST
Temp
°C
App
Temp
°C
Dew
Point
Rel
Hum
%
Delta-T
°C
Wind Press
QNH
hPa
Press
MSL
hPa
Rain
since 9 am
mm
Dir
 
Spd
km/h
Gust
km/h
Spd
kts
Gust
kts
30/11:30pm 28.9 31.7 26.9 89 1.4 N 26 30 14 16 1013.8 1013.6 -
30/11:00pm 29.1 31.5 26.9 88 1.6 N 28 32 15 17 1013.6 1013.4 -
30/10:30pm 29.1 31.9 26.9 88 1.6 N 26 30 14 16 1013.5 1013.3 -
30/10:00pm 29.1 32.3 27.5 91 1.2 N 26 30 14 16 1013.5 1013.3 -
30/09:30pm 28.9 32.6 27.1 90 1.3 N 22 26 12 14 1013.7 1013.5 -
30/09:00pm 28.7 31.7 27.3 92 1.0 NNE 26 30 14 16 1013.5 1013.3 -
30/08:30pm 28.8 31.0 27.2 91 1.2 N 30 35 16 19 1013.4 1013.2 -
30/08:00pm 29.1 31.0 27.3 90 1.3 N 32 37 17 20 1013.5 1013.3 -
30/07:30pm 29.0 31.0 27.4 91 1.2 NNE 32 35 17 19 1013.1 1012.9 -
30/07:00pm 28.8 30.9 27.0 90 1.3 NNE 30 33 16 18 1012.6 1012.4 -
30/06:30pm 28.9 30.6 26.5 87 1.7 NNE 30 33 16 18 1012.1 1011.9 -
30/06:00pm 29.0 31.3 26.8 88 1.6 NNE 28 33 15 18 1012.0 1011.8 -
30/05:30pm 29.0 30.7 26.4 86 1.9 NNE 30 33 16 18 1011.9 1011.7 -
30/05:00pm 29.3 31.7 26.3 84 2.1 NNE 26 32 14 17 1011.9 1011.7 -
30/04:30pm 29.3 31.8 26.5 85 2.0 NNE 26 30 14 16 1011.6 1011.4 -
30/04:00pm 29.4 31.7 26.2 83 2.3 NNE 26 30 14 16 1011.7 1011.5 -
30/03:30pm 29.3 31.0 26.5 85 2.0 NNE 30 33 16 18 1011.5 1011.3 -
30/03:00pm 29.4 31.4 26.4 84 2.1 NNE 28 32 15 17 1011.5 1011.3 -
30/02:30pm 29.5 31.7 26.1 82 2.4 NNE 26 30 14 16 1011.7 1011.5 -
30/02:00pm 29.6 31.9 26.2 82 2.4 NNE 26 30 14 16 1011.9 1011.7 -
30/01:30pm 29.5 30.6 25.5 79 2.8 NNE 30 35 16 19 1011.8 1011.6 -
30/01:00pm 30.4 30.6 25.0 73 3.8 NNE 33 39 18 21 1011.3 1011.1 -
30/12:30pm 30.1 29.9 24.3 71 4.0 NNE 33 39 18 21 1011.6 1011.4 -
30/12:00pm 31.4 30.6 24.0 65 5.2 NNE 35 41 19 22 1012.0 1011.8 -
30/11:30am 31.0 30.3 24.1 66 4.8 NNE 35 39 19 21 1012.6 1012.4 -
30/11:00am 30.6 30.8 25.0 72 3.9 NE 33 41 18 22 1012.9 1012.7 -
30/10:30am 29.6 29.6 24.7 75 3.4 NE 33 39 18 21 1013.3 1013.1 -
30/10:00am 29.2 29.3 25.4 80 2.7 NE 35 41 19 22 1013.1 1012.9 -
30/09:30am 28.8 28.2 25.0 80 2.7 NE 37 43 20 23 1013.3 1013.1 -
30/09:00am 28.9 28.1 25.3 81 2.5 NE 39 46 21 25 1013.0 1012.8 -
30/08:30am 28.6 28.0 25.6 84 2.1 NE 39 46 21 25 1012.6 1012.4 -
30/08:00am 28.3 27.8 25.7 86 1.8 NNE 39 48 21 26 1012.7 1012.5 -
30/07:30am 27.4 28.4 26.2 93 0.9 NE 33 41 18 22 1012.5 1012.3 -
30/07:00am 28.2 27.5 24.8 82 2.4 NNE 37 43 20 23 1012.0 1011.8 -
30/06:30am 27.8 27.9 26.0 90 1.3 NNE 37 43 20 23 1012.1 1011.9 -
30/06:00am 27.0 29.0 26.3 96 0.5 NE 28 37 15 20 1011.9 1011.7 -
30/05:30am 26.3 27.3 26.3 100 0.0 NE 33 43 18 23 1011.7 1011.5 -
30/05:00am 25.9 27.6 25.9 100 0.0 NE 28 35 15 19 1011.1 1010.9 -
30/04:37am 25.8 24.4 25.8 100 0.0 NE 44 56 24 30 1010.9 1010.7 -
30/04:30am 26.0 24.2 25.8 99 0.1 NNE 46 56 25 30 1010.5 1010.3 -
30/04:00am 27.4 28.4 26.2 93 0.9 NE 33 43 18 23 1010.3 1010.1 -
30/03:30am 27.2 26.8 26.5 96 0.5 NNE 41 50 22 27 1010.3 1010.1 -
30/03:00am 26.8 25.3 25.6 93 0.8 NNE 44 54 24 29 1009.6 1009.4 -
30/02:54am 27.0 25.7 26.0 94 0.7 NNE 44 50 24 27 1009.6 1009.4 -
30/02:30am 28.2 24.5 24.0 78 2.9 NE 50 61 27 33 1010.1 1009.9 -
30/02:00am 27.5 24.5 25.1 87 1.7 NE 50 57 27 31 1010.7 1010.5 -
30/01:30am 26.7 25.6 26.2 97 0.4 NE 44 56 24 30 1011.4 1011.2 -
30/01:21am 27.4 27.0 25.8 91 1.1 NE 39 50 21 27 1011.1 1010.9 -
30/01:00am 28.9 27.3 25.5 82 2.4 ENE 44 52 24 28 1011.3 1011.1 -
30/12:30am 29.0 28.4 25.6 82 2.4 ENE 39 46 21 25 1012.0 1011.8 -
30/12:00am 28.9 27.4 25.3 81 2.5 ENE 43 50 23 27 1012.2 1012.0 -
 
Date/Time
WST
Temp
°C
App
Temp
°C
Dew
Point
Rel
Hum
%
Delta-T
°C
Wind Press
QNH
hPa
Press
MSL
hPa
Rain
since 9 am
mm
Dir
 
Spd
km/h
Gust
km/h
Spd
kts
Gust
kts
29/11:30pm 28.9 28.1 25.3 81 2.5 NE 39 46 21 25 1012.6 1012.4 -
29/11:00pm 29.0 28.3 25.4 81 2.5 ENE 39 46 21 25 1012.6 1012.4 -
29/10:30pm 28.9 27.5 24.9 79 2.8 ENE 41 46 22 25 1013.0 1012.8 -
29/10:00pm 28.9 27.9 24.9 79 2.8 ENE 39 44 21 24 1013.2 1013.0 -
29/09:30pm 28.9 26.9 24.5 77 3.1 ENE 43 48 23 26 1013.0 1012.8 -
29/09:00pm 29.0 27.2 24.3 76 3.3 ENE 41 48 22 26 1013.0 1012.8 -
29/08:30pm 28.9 28.4 25.1 80 2.7 ENE 37 44 20 24 1012.8 1012.6 -
29/08:00pm 28.7 28.3 25.3 82 2.4 ENE 37 43 20 23 1012.4 1012.2 -
29/07:30pm 28.7 29.2 25.5 83 2.3 ENE 33 41 18 22 1012.3 1012.1 -
29/07:00pm 28.7 28.1 25.5 83 2.3 NE 39 44 21 24 1011.9 1011.7 -
29/06:30pm 29.1 28.5 26.1 84 2.1 NE 41 46 22 25 1011.3 1011.1 -
29/06:00pm 29.5 30.3 25.9 81 2.6 NE 33 39 18 21 1011.0 1010.8 -
29/05:30pm 29.8 29.8 25.3 77 3.2 NE 35 41 19 22 1010.5 1010.3 -
29/05:00pm 29.9 28.6 25.0 75 3.4 NE 41 46 22 25 1010.1 1009.9 -
29/04:30pm 30.4 28.9 24.8 72 3.9 NE 41 46 22 25 1010.1 1009.9 -
29/04:00pm 31.1 31.1 24.7 68 4.5 NE 33 39 18 21 1010.1 1009.9 -
29/03:30pm 31.6 31.5 24.2 65 5.2 NE 32 35 17 19 1010.2 1010.0 -
29/03:00pm 31.8 33.5 24.7 66 5.0 NE 24 26 13 14 1010.4 1010.2 -
29/02:30pm 31.9 33.0 25.0 67 4.9 NE 28 32 15 17 1010.7 1010.5 -
29/02:00pm 32.2 32.4 23.4 59 6.1 ENE 28 32 15 17 1011.0 1010.8 -
29/01:30pm 32.6 33.0 23.8 59 6.1 ENE 28 32 15 17 1010.9 1010.7 -
29/01:00pm 32.7 33.9 23.9 60 6.1 E 24 28 13 15 1011.3 1011.1 -
29/12:30pm 32.7 35.0 24.5 62 5.8 E 20 24 11 13 1011.8 1011.6 -
29/12:00pm 32.9 34.8 24.4 61 6.0 E 22 26 12 14 1012.3 1012.1 -
29/11:30am 32.5 34.0 24.3 62 5.7 E 24 26 13 14 1012.8 1012.6 -
29/11:00am 32.7 35.4 25.0 64 5.4 E 20 22 11 12 1013.4 1013.2 -
29/10:30am 32.2 34.9 24.8 65 5.2 E 19 22 10 12 1013.4 1013.2 -
29/10:00am 32.1 35.1 25.2 67 4.9 ENE 19 20 10 11 1013.5 1013.3 -
29/09:30am 32.1 34.9 24.9 65 5.1 ENE 19 20 10 11 1013.6 1013.4 -
29/09:00am 31.7 35.6 25.5 69 4.4 ENE 15 15 8 8 1013.3 1013.1 -
29/08:30am 31.3 35.7 25.6 71 4.0 ENE 13 15 7 8 1013.1 1012.9 -
29/08:00am 30.7 33.8 24.8 71 4.1 ENE 17 19 9 10 1012.9 1012.7 -
29/07:30am 30.2 34.6 25.7 77 3.2 ENE 13 15 7 8 1012.7 1012.5 -
29/07:00am 29.4 35.2 25.8 81 2.6 E 6 9 3 5 1012.5 1012.3 -
29/06:30am 28.6 33.1 24.6 79 2.8 E 9 9 5 5 1012.1 1011.9 -
29/06:00am 28.6 33.5 24.6 79 2.8 E 7 9 4 5 1011.8 1011.6 -
29/05:30am 28.6 32.1 24.2 77 3.1 ENE 13 15 7 8 1011.6 1011.4 -
29/05:00am 28.2 32.9 25.0 83 2.2 E 9 9 5 5 1011.6 1011.4 -
29/04:30am 27.3 30.7 24.0 82 2.3 SSE 13 15 7 8 1011.1 1010.9 -
29/04:00am 27.1 31.4 24.2 84 2.0 S 9 11 5 6 1010.9 1010.7 -
29/03:30am 27.4 31.7 23.6 80 2.6 SSW 7 9 4 5 1010.9 1010.7 -
29/03:00am 27.4 30.8 24.1 82 2.3 SSW 13 17 7 9 1010.8 1010.6 -
29/02:30am 27.5 31.6 24.6 84 2.0 SSW 11 13 6 7 1010.7 1010.5 -
29/02:00am 27.3 31.3 24.4 84 2.0 SSW 11 15 6 8 1011.0 1010.8 -
29/01:30am 27.5 32.8 25.3 88 1.5 SSW 7 9 4 5 1011.4 1011.2 -
29/01:00am 27.5 32.3 25.7 90 1.3 SSW 11 15 6 8 1011.8 1011.6 -
29/12:30am 27.5 32.8 25.9 91 1.1 SSW 9 11 5 6 1012.0 1011.8 -
29/12:00am 27.6 32.6 26.0 91 1.1 SSW 11 15 6 8 1012.2 1012.0 -
 
Date/Time
WST
Temp
°C
App
Temp
°C
Dew
Point
Rel
Hum
%
Delta-T
°C
Wind Press
QNH
hPa
Press
MSL
hPa
Rain
since 9 am
mm
Dir
 
Spd
km/h
Gust
km/h
Spd
kts
Gust
kts
28/11:30pm 27.6 32.5 25.2 87 1.7 SSW 9 11 5 6 1012.5 1012.3 -
28/11:00pm 27.9 31.9 25.1 85 2.0 SSW 13 15 7 8 1012.5 1012.3 -
28/10:30pm 28.1 32.0 24.3 80 2.6 SSW 11 15 6 8 1012.8 1012.6 -
28/10:00pm 28.4 32.0 23.8 76 3.2 SW 11 15 6 8 1013.0 1012.8 -
28/09:30pm 28.3 31.3 24.7 81 2.5 SSW 17 19 9 10 1013.0 1012.8 -
28/09:00pm 28.3 32.3 23.7 76 3.2 NNW 9 17 5 9 1013.0 1012.8 -
28/08:30pm 29.2 32.6 24.7 77 3.1 N 15 17 8 9 1012.3 1012.1 -
28/08:00pm 29.4 32.2 24.3 74 3.6 N 17 19 9 10 1011.8 1011.6 -
28/07:30pm 29.4 31.8 23.6 71 4.0 N 17 20 9 11 1011.2 1011.0 -

Other Formats:

Comma delimited format used in spreadsheet applications
http://www.bom.gov.au/fwo/IDW60801/IDW60801.94307.axf

JavaScript Object Notation format (JSON) in row-major order
http://www.bom.gov.au/fwo/IDW60801/IDW60801.94307.json